Decoded Metar for KGOV (GRAYLING AF in MI, USA) (IATA:GOV) | Meteo·Mobile Aviation Weather
aviador You're here:

KGOV Decoded Metar

GRAYLING AF in MI, USA
Report Time2019-08-24 12:58:00
UTC Time2019-08-24 13:11:24
Flight Rules vfr VFR
WindCalm
Visibility9999 m
Phenomena:N/A
Clouds:N/A
Expected CloudBase > 400 ft AGL from Temp-Dew spread
CeilingNone
Temp10°C (ISA -3)
Dew Point09°C (94% RH)
AAT9.8°C
QNH1029 hPa
Density Alt456 ft
Elevation1,158 ft
Report Wrong Elevation
Raw Report
KGOV 241258Z AUTO 00000KT 10SM CLR 10/09 A3038 RMK AO2 SLP299
T01000086 $=

Extra information for KGOV:More info

Metar Taf Metar & Taf Last 4 Metars F.Rules Stats Wind Profile Meteogram Temp Stats Airport Information Weather charts Add Link Nearby VenuesMetar ALERT Operation Metar Decoded Social comments

AIRNAV info for KGOV